createdAt,value
2018-11-06T01:29:51.264Z,1005.83
2018-11-06T01:29:51.837Z,1005.85
2018-11-06T01:29:52.437Z,1005.84
2018-11-06T01:29:53.036Z,1005.84
2018-11-06T01:29:53.636Z,1005.82
2018-11-06T01:29:54.236Z,1005.83
2018-11-06T01:29:54.836Z,1005.86
2018-11-06T01:29:55.437Z,1005.83
2018-11-06T01:30:49.939Z,1005.78
2018-11-06T01:30:50.511Z,1005.80
2018-11-06T01:30:51.116Z,1005.84
2018-11-06T01:30:51.711Z,1005.81
2018-11-06T01:30:52.312Z,1005.82
2018-11-06T01:30:52.912Z,1005.79
2018-11-06T01:30:53.518Z,1005.82
2018-11-06T01:30:54.111Z,1005.82
2018-11-06T01:31:47.592Z,1005.80
2018-11-06T01:31:48.166Z,1005.80
2018-11-06T01:31:48.764Z,1005.77
2018-11-06T01:31:49.364Z,1005.80
2018-11-06T01:31:49.964Z,1005.80
2018-11-06T01:31:50.565Z,1005.79
2018-11-06T01:31:51.168Z,1005.82
2018-11-06T01:31:51.763Z,1005.82
2018-11-06T01:32:45.245Z,1005.79
2018-11-06T01:32:45.817Z,1005.82
2018-11-06T01:32:46.415Z,1005.75
2018-11-06T01:32:47.017Z,1005.79
2018-11-06T01:32:47.617Z,1005.80
2018-11-06T01:32:48.216Z,1005.78
2018-11-06T01:32:48.816Z,1005.75
2018-11-06T01:32:49.415Z,1005.78
2018-11-06T01:33:43.920Z,1005.81
2018-11-06T01:33:44.492Z,1005.80
2018-11-06T01:33:45.094Z,1005.83
2018-11-06T01:33:45.692Z,1005.82
2018-11-06T01:33:46.291Z,1005.82
2018-11-06T01:33:46.893Z,1005.84
2018-11-06T01:33:47.495Z,1005.81
2018-11-06T01:33:48.091Z,1005.78
2018-11-06T01:34:42.597Z,1005.75
2018-11-06T01:34:43.171Z,1005.79
2018-11-06T01:34:43.767Z,1005.82
2018-11-06T01:34:44.371Z,1005.83
2018-11-06T01:34:44.968Z,1005.77
2018-11-06T01:34:45.568Z,1005.77
2018-11-06T01:34:46.168Z,1005.73
2018-11-06T01:34:46.768Z,1005.78
2018-11-06T01:35:41.273Z,1005.77
2018-11-06T01:35:41.846Z,1005.77
2018-11-06T01:35:42.445Z,1005.78
2018-11-06T01:35:43.044Z,1005.78
2018-11-06T01:35:43.644Z,1005.76
2018-11-06T01:35:44.245Z,1005.76
2018-11-06T01:35:44.844Z,1005.75
2018-11-06T01:35:45.444Z,1005.77
2018-11-06T01:36:39.950Z,1005.73
2018-11-06T01:36:40.520Z,1005.77
2018-11-06T01:36:41.120Z,1005.77
2018-11-06T01:36:41.723Z,1005.75
2018-11-06T01:36:42.320Z,1005.76
2018-11-06T01:36:42.919Z,1005.78
2018-11-06T01:36:43.520Z,1005.75
2018-11-06T01:36:44.120Z,1005.77
2018-11-06T01:37:37.603Z,1005.74
2018-11-06T01:37:38.174Z,1005.69
2018-11-06T01:37:38.777Z,1005.73
2018-11-06T01:37:39.375Z,1005.74
2018-11-06T01:37:39.972Z,1005.71
2018-11-06T01:37:40.572Z,1005.73
2018-11-06T01:37:41.173Z,1005.74
2018-11-06T01:37:41.772Z,1005.71
2018-11-06T01:38:35.257Z,1005.70
2018-11-06T01:38:35.826Z,1005.69
2018-11-06T01:38:36.426Z,1005.72
2018-11-06T01:38:37.025Z,1005.72
2018-11-06T01:38:37.625Z,1005.72
2018-11-06T01:38:38.226Z,1005.72
2018-11-06T01:38:38.825Z,1005.72
2018-11-06T01:38:39.424Z,1005.67
2018-11-06T01:39:33.926Z,1005.65
2018-11-06T01:39:34.500Z,1005.69
2018-11-06T01:39:35.100Z,1005.69
2018-11-06T01:39:35.701Z,1005.69
2018-11-06T01:39:36.301Z,1005.66
2018-11-06T01:39:36.900Z,1005.71
2018-11-06T01:39:37.500Z,1005.66
2018-11-06T01:39:38.100Z,1005.66
2018-11-06T01:40:32.604Z,1005.67
2018-11-06T01:40:33.178Z,1005.70
2018-11-06T01:40:33.777Z,1005.72
2018-11-06T01:40:34.377Z,1005.71
2018-11-06T01:40:34.976Z,1005.69
2018-11-06T01:40:35.577Z,1005.69
2018-11-06T01:40:36.176Z,1005.70
2018-11-06T01:40:36.778Z,1005.72
2018-11-06T01:41:31.279Z,1005.68
2018-11-06T01:41:31.854Z,1005.67
2018-11-06T01:41:32.453Z,1005.68
2018-11-06T01:41:33.054Z,1005.69
2018-11-06T01:41:33.654Z,1005.68
2018-11-06T01:41:34.256Z,1005.69
2018-11-06T01:41:34.852Z,1005.71
2018-11-06T01:41:35.451Z,1005.70
2018-11-06T01:42:28.934Z,1005.68
2018-11-06T01:42:29.505Z,1005.68
2018-11-06T01:42:30.107Z,1005.68
2018-11-06T01:42:30.705Z,1005.70
2018-11-06T01:42:31.307Z,1005.69
2018-11-06T01:42:31.909Z,1005.69
2018-11-06T01:42:32.505Z,1005.66
2018-11-06T01:42:33.104Z,1005.69
2018-11-06T01:43:27.606Z,1005.72
2018-11-06T01:43:28.180Z,1005.69
2018-11-06T01:43:28.780Z,1005.70
2018-11-06T01:43:29.379Z,1005.71
2018-11-06T01:43:29.979Z,1005.69
2018-11-06T01:43:30.580Z,1005.72
2018-11-06T01:43:31.177Z,1005.68
2018-11-06T01:43:31.787Z,1005.72
2018-11-06T01:44:26.283Z,1005.69
2018-11-06T01:44:26.856Z,1005.70
2018-11-06T01:44:27.458Z,1005.72
2018-11-06T01:44:28.056Z,1005.73
2018-11-06T01:44:28.656Z,1005.70
2018-11-06T01:44:29.257Z,1005.71
2018-11-06T01:44:29.855Z,1005.73
2018-11-06T01:44:30.455Z,1005.71
2018-11-06T01:45:24.959Z,1005.69
2018-11-06T01:45:25.535Z,1005.69
2018-11-06T01:45:26.129Z,1005.71
2018-11-06T01:45:26.729Z,1005.72
2018-11-06T01:45:27.329Z,1005.70
2018-11-06T01:45:27.929Z,1005.69
2018-11-06T01:45:28.531Z,1005.71
2018-11-06T01:45:29.129Z,1005.69
2018-11-06T01:46:22.613Z,1005.71
2018-11-06T01:46:23.186Z,1005.66
2018-11-06T01:46:23.783Z,1005.70
2018-11-06T01:46:24.385Z,1005.69
2018-11-06T01:46:24.983Z,1005.69
2018-11-06T01:46:25.584Z,1005.68
2018-11-06T01:46:26.184Z,1005.66
2018-11-06T01:46:26.783Z,1005.69
2018-11-06T01:47:21.286Z,1005.67
2018-11-06T01:47:21.859Z,1005.67
2018-11-06T01:47:22.459Z,1005.69
2018-11-06T01:47:23.068Z,1005.70
2018-11-06T01:47:23.659Z,1005.72
2018-11-06T01:47:24.260Z,1005.72
2018-11-06T01:47:24.859Z,1005.68
2018-11-06T01:47:25.460Z,1005.68
2018-11-06T01:48:19.962Z,1005.69
2018-11-06T01:48:20.535Z,1005.68
2018-11-06T01:48:21.135Z,1005.69
2018-11-06T01:48:21.736Z,1005.65
2018-11-06T01:48:22.335Z,1005.66
2018-11-06T01:48:22.935Z,1005.68
2018-11-06T01:48:23.535Z,1005.67
2018-11-06T01:48:24.135Z,1005.69
2018-11-06T01:49:17.614Z,1005.68
2018-11-06T01:49:18.187Z,1005.67
2018-11-06T01:49:18.788Z,1005.68
2018-11-06T01:49:19.388Z,1005.67
2018-11-06T01:49:19.989Z,1005.67
2018-11-06T01:49:20.587Z,1005.64
2018-11-06T01:49:21.190Z,1005.65
2018-11-06T01:49:21.786Z,1005.67
2018-11-06T01:50:15.277Z,1005.58
2018-11-06T01:50:15.842Z,1005.65
2018-11-06T01:50:16.440Z,1005.64
2018-11-06T01:50:17.083Z,1005.63
2018-11-06T01:50:17.640Z,1005.61
2018-11-06T01:50:18.241Z,1005.61
2018-11-06T01:50:18.839Z,1005.62
2018-11-06T01:50:19.441Z,1005.63
2018-11-06T01:51:13.940Z,1005.60
2018-11-06T01:51:14.515Z,1005.61
2018-11-06T01:51:15.114Z,1005.58
2018-11-06T01:51:15.715Z,1005.61
2018-11-06T01:51:16.313Z,1005.61
2018-11-06T01:51:16.914Z,1005.63
2018-11-06T01:51:17.514Z,1005.60
2018-11-06T01:51:18.116Z,1005.61
2018-11-06T01:52:12.618Z,1005.61
2018-11-06T01:52:13.190Z,1005.63
2018-11-06T01:52:13.789Z,1005.63
2018-11-06T01:52:14.389Z,1005.64
2018-11-06T01:52:14.990Z,1005.59
2018-11-06T01:52:15.593Z,1005.62
2018-11-06T01:52:16.188Z,1005.63
2018-11-06T01:52:16.788Z,1005.62
2018-11-06T01:53:10.270Z,1005.60
2018-11-06T01:53:10.843Z,1005.63
2018-11-06T01:53:11.442Z,1005.60
2018-11-06T01:53:12.042Z,1005.59
2018-11-06T01:53:12.644Z,1005.60
2018-11-06T01:53:13.242Z,1005.62
2018-11-06T01:53:13.841Z,1005.62
2018-11-06T01:53:14.441Z,1005.63
2018-11-06T01:54:08.944Z,1005.60
2018-11-06T01:54:09.520Z,1005.62
2018-11-06T01:54:10.117Z,1005.62
2018-11-06T01:54:10.719Z,1005.62
2018-11-06T01:54:11.316Z,1005.59
2018-11-06T01:54:11.919Z,1005.64
2018-11-06T01:54:12.518Z,1005.61
2018-11-06T01:54:13.116Z,1005.62
2018-11-06T01:55:07.619Z,1005.58
2018-11-06T01:55:08.193Z,1005.60
2018-11-06T01:55:08.792Z,1005.61
2018-11-06T01:55:09.395Z,1005.59
2018-11-06T01:55:09.994Z,1005.62
2018-11-06T01:55:10.593Z,1005.59
2018-11-06T01:55:11.191Z,1005.60
2018-11-06T01:55:11.792Z,1005.60
2018-11-06T01:56:05.285Z,1005.59
2018-11-06T01:56:05.846Z,1005.59
2018-11-06T01:56:06.445Z,1005.58
2018-11-06T01:56:07.047Z,1005.57
2018-11-06T01:56:07.646Z,1005.60
2018-11-06T01:56:08.245Z,1005.60
2018-11-06T01:56:08.845Z,1005.55
2018-11-06T01:56:09.445Z,1005.61
2018-11-06T01:57:03.951Z,1005.61
2018-11-06T01:57:04.523Z,1005.60
2018-11-06T01:57:05.122Z,1005.58
2018-11-06T01:57:05.723Z,1005.56
2018-11-06T01:57:06.320Z,1005.59
2018-11-06T01:57:06.920Z,1005.60
2018-11-06T01:57:07.520Z,1005.62
2018-11-06T01:57:08.118Z,1005.59
2018-11-06T01:58:02.623Z,1005.56
2018-11-06T01:58:03.196Z,1005.55
2018-11-06T01:58:03.795Z,1005.61
2018-11-06T01:58:04.394Z,1005.57
2018-11-06T01:58:04.997Z,1005.59
2018-11-06T01:58:05.596Z,1005.58
2018-11-06T01:58:06.195Z,1005.57
2018-11-06T01:58:06.797Z,1005.53
2018-11-06T01:59:00.276Z,1005.58
2018-11-06T01:59:00.848Z,1005.57
2018-11-06T01:59:01.449Z,1005.54
2018-11-06T01:59:02.052Z,1005.60
2018-11-06T01:59:02.647Z,1005.53
2018-11-06T01:59:03.251Z,1005.55
2018-11-06T01:59:03.846Z,1005.57
2018-11-06T01:59:04.448Z,1005.58
2018-11-06T01:59:57.929Z,1005.57
2018-11-06T01:59:58.501Z,1005.53
2018-11-06T01:59:59.101Z,1005.58
2018-11-06T01:59:59.700Z,1005.55
2018-11-06T02:00:00.300Z,1005.57
2018-11-06T02:00:00.902Z,1005.54
2018-11-06T02:00:01.503Z,1005.59
2018-11-06T02:00:02.107Z,1005.55
2018-11-06T02:00:56.603Z,1005.57
2018-11-06T02:00:57.175Z,1005.56
2018-11-06T02:00:57.776Z,1005.59
2018-11-06T02:00:58.378Z,1005.60
2018-11-06T02:00:58.977Z,1005.58
2018-11-06T02:00:59.574Z,1005.52
2018-11-06T02:01:00.175Z,1005.54
2018-11-06T02:01:00.776Z,1005.58
2018-11-06T02:01:54.254Z,1005.56
2018-11-06T02:01:54.828Z,1005.57
2018-11-06T02:01:55.430Z,1005.56
2018-11-06T02:01:56.028Z,1005.57
2018-11-06T02:01:56.627Z,1005.57
2018-11-06T02:01:57.233Z,1005.55
2018-11-06T02:01:57.829Z,1005.56
2018-11-06T02:01:58.429Z,1005.55
2018-11-06T02:02:51.909Z,1005.59
2018-11-06T02:02:52.479Z,1005.57
2018-11-06T02:02:53.079Z,1005.61
2018-11-06T02:02:53.680Z,1005.57
2018-11-06T02:02:54.281Z,1005.51
2018-11-06T02:02:54.881Z,1005.57
2018-11-06T02:02:55.480Z,1005.63
2018-11-06T02:02:56.079Z,1005.60
2018-11-06T02:03:50.581Z,1005.60
2018-11-06T02:03:51.155Z,1005.59
2018-11-06T02:03:51.753Z,1005.59
2018-11-06T02:03:52.355Z,1005.62
2018-11-06T02:03:52.955Z,1005.62
2018-11-06T02:03:53.553Z,1005.62
2018-11-06T02:03:54.153Z,1005.60
2018-11-06T02:03:54.754Z,1005.61
2018-11-06T02:04:48.237Z,1005.64
2018-11-06T02:04:48.806Z,1005.63
2018-11-06T02:04:49.407Z,1005.63
2018-11-06T02:04:50.007Z,1005.64
2018-11-06T02:04:50.607Z,1005.62
2018-11-06T02:04:51.206Z,1005.64
2018-11-06T02:04:51.807Z,1005.63
2018-11-06T02:04:52.405Z,1005.65
2018-11-06T02:05:45.888Z,1005.70
2018-11-06T02:05:46.459Z,1005.73
2018-11-06T02:05:47.060Z,1005.71
2018-11-06T02:05:47.658Z,1005.71
2018-11-06T02:05:48.257Z,1005.67
2018-11-06T02:05:48.857Z,1005.72
2018-11-06T02:05:49.457Z,1005.69
2018-11-06T02:05:50.059Z,1005.64
2018-11-06T02:06:44.561Z,1005.73
2018-11-06T02:06:45.133Z,1005.73
2018-11-06T02:06:45.733Z,1005.71
2018-11-06T02:06:46.333Z,1005.71
2018-11-06T02:06:46.934Z,1005.74
2018-11-06T02:06:47.534Z,1005.71
2018-11-06T02:06:48.133Z,1005.71
2018-11-06T02:06:48.733Z,1005.74
2018-11-06T02:07:42.215Z,1005.70
2018-11-06T02:07:42.802Z,1005.70
2018-11-06T02:07:43.385Z,1005.73
2018-11-06T02:07:43.986Z,1005.68
2018-11-06T02:07:44.583Z,1005.77
2018-11-06T02:07:45.184Z,1005.73
2018-11-06T02:07:45.785Z,1005.76
2018-11-06T02:07:46.386Z,1005.71
2018-11-06T02:08:40.888Z,1005.75
2018-11-06T02:08:41.461Z,1005.75
2018-11-06T02:08:42.062Z,1005.73
2018-11-06T02:08:42.661Z,1005.74
2018-11-06T02:08:43.262Z,1005.74
2018-11-06T02:08:43.861Z,1005.73
2018-11-06T02:08:44.461Z,1005.76
2018-11-06T02:08:45.064Z,1005.74
2018-11-06T02:09:39.564Z,1005.74
2018-11-06T02:09:40.138Z,1005.75
2018-11-06T02:09:40.737Z,1005.76
2018-11-06T02:09:41.337Z,1005.76
2018-11-06T02:09:41.935Z,1005.73
2018-11-06T02:09:42.537Z,1005.70
2018-11-06T02:09:43.135Z,1005.74
2018-11-06T02:09:43.737Z,1005.75
2018-11-06T02:10:38.242Z,1005.73
2018-11-06T02:10:38.815Z,1005.75
2018-11-06T02:10:39.413Z,1005.74
2018-11-06T02:10:40.013Z,1005.77
2018-11-06T02:10:40.615Z,1005.75
2018-11-06T02:10:41.216Z,1005.77
2018-11-06T02:10:41.812Z,1005.75
2018-11-06T02:10:42.411Z,1005.75
2018-11-06T02:11:36.916Z,1005.73
2018-11-06T02:11:37.487Z,1005.75
2018-11-06T02:11:38.089Z,1005.73
2018-11-06T02:11:38.688Z,1005.73
2018-11-06T02:11:39.288Z,1005.77
2018-11-06T02:11:39.887Z,1005.76
2018-11-06T02:11:40.487Z,1005.75
2018-11-06T02:11:41.091Z,1005.77
2018-11-06T02:12:35.591Z,1005.77
2018-11-06T02:12:36.166Z,1005.75
2018-11-06T02:12:36.764Z,1005.75
2018-11-06T02:12:37.364Z,1005.76
2018-11-06T02:12:37.963Z,1005.77
2018-11-06T02:12:38.563Z,1005.77
2018-11-06T02:12:39.164Z,1005.74
2018-11-06T02:12:39.764Z,1005.75
2018-11-06T02:13:33.242Z,1005.79
2018-11-06T02:13:33.816Z,1005.76
2018-11-06T02:13:34.417Z,1005.79
2018-11-06T02:13:35.017Z,1005.79
2018-11-06T02:13:35.617Z,1005.78
2018-11-06T02:13:36.215Z,1005.77
2018-11-06T02:13:36.815Z,1005.77
2018-11-06T02:13:37.418Z,1005.78
2018-11-06T02:14:31.921Z,1005.77
2018-11-06T02:14:32.491Z,1005.77
2018-11-06T02:14:33.096Z,1005.79
2018-11-06T02:14:33.692Z,1005.77
2018-11-06T02:14:34.297Z,1005.78
2018-11-06T02:14:34.890Z,1005.78
2018-11-06T02:14:35.492Z,1005.77
2018-11-06T02:14:36.090Z,1005.79
2018-11-06T02:15:30.599Z,1005.77
2018-11-06T02:15:31.167Z,1005.77
2018-11-06T02:15:31.765Z,1005.77
2018-11-06T02:15:32.367Z,1005.80
2018-11-06T02:15:32.966Z,1005.77
2018-11-06T02:15:33.566Z,1005.79
2018-11-06T02:15:34.165Z,1005.76
2018-11-06T02:15:34.765Z,1005.79
2018-11-06T02:16:29.271Z,1005.76
2018-11-06T02:16:29.844Z,1005.75
2018-11-06T02:16:30.445Z,1005.76
2018-11-06T02:16:31.043Z,1005.76
2018-11-06T02:16:31.643Z,1005.77
2018-11-06T02:16:32.242Z,1005.75
2018-11-06T02:16:32.842Z,1005.74
2018-11-06T02:16:33.442Z,1005.75
2018-11-06T02:17:26.922Z,1005.74
2018-11-06T02:17:27.497Z,1005.74
2018-11-06T02:17:28.095Z,1005.74
2018-11-06T02:17:28.695Z,1005.71
2018-11-06T02:17:29.296Z,1005.75
2018-11-06T02:17:29.896Z,1005.70
2018-11-06T02:17:30.495Z,1005.75
2018-11-06T02:17:31.097Z,1005.77
2018-11-06T02:18:25.599Z,1005.76
2018-11-06T02:18:26.172Z,1005.74
2018-11-06T02:18:26.770Z,1005.73
2018-11-06T02:18:27.371Z,1005.73
2018-11-06T02:18:27.971Z,1005.75
2018-11-06T02:18:28.573Z,1005.74
2018-11-06T02:18:29.168Z,1005.71
2018-11-06T02:18:29.768Z,1005.71
2018-11-06T02:19:23.252Z,1005.72
2018-11-06T02:19:23.823Z,1005.71
2018-11-06T02:19:24.422Z,1005.75
2018-11-06T02:19:25.024Z,1005.69
2018-11-06T02:19:25.623Z,1005.73
2018-11-06T02:19:26.223Z,1005.76
2018-11-06T02:19:26.822Z,1005.73
2018-11-06T02:19:27.422Z,1005.72
2018-11-06T02:20:21.927Z,1005.76
2018-11-06T02:20:22.499Z,1005.77
2018-11-06T02:20:23.098Z,1005.75
2018-11-06T02:20:23.698Z,1005.74
2018-11-06T02:20:24.297Z,1005.73
2018-11-06T02:20:24.897Z,1005.76
2018-11-06T02:20:25.497Z,1005.80
2018-11-06T02:20:26.097Z,1005.74
2018-11-06T02:21:19.581Z,1005.75
2018-11-06T02:21:20.155Z,1005.78
2018-11-06T02:21:20.753Z,1005.78
2018-11-06T02:21:21.351Z,1005.79
2018-11-06T02:21:21.950Z,1005.78
2018-11-06T02:21:22.548Z,1005.75
2018-11-06T02:21:23.152Z,1005.80
2018-11-06T02:21:23.749Z,1005.81
2018-11-06T02:22:17.237Z,1005.77
2018-11-06T02:22:17.801Z,1005.78
2018-11-06T02:22:18.403Z,1005.80
2018-11-06T02:22:19.001Z,1005.77
2018-11-06T02:22:19.602Z,1005.77
2018-11-06T02:22:20.203Z,1005.79
2018-11-06T02:22:20.800Z,1005.78
2018-11-06T02:22:21.399Z,1005.78
2018-11-06T02:23:14.881Z,1005.78
2018-11-06T02:23:15.453Z,1005.78
2018-11-06T02:23:16.053Z,1005.75
2018-11-06T02:23:16.652Z,1005.75
2018-11-06T02:23:17.253Z,1005.82
2018-11-06T02:23:17.853Z,1005.82
2018-11-06T02:23:18.453Z,1005.82
2018-11-06T02:23:19.052Z,1005.82
2018-11-06T02:24:12.534Z,1005.77
2018-11-06T02:24:13.106Z,1005.75
2018-11-06T02:24:13.705Z,1005.75
2018-11-06T02:24:14.308Z,1005.75
2018-11-06T02:24:14.906Z,1005.75
2018-11-06T02:24:15.509Z,1005.80
2018-11-06T02:24:16.106Z,1005.78
2018-11-06T02:24:16.706Z,1005.77
2018-11-06T02:25:10.189Z,1005.76
2018-11-06T02:25:10.757Z,1005.73
2018-11-06T02:25:11.358Z,1005.75
2018-11-06T02:25:11.960Z,1005.73
2018-11-06T02:25:12.556Z,1005.77
2018-11-06T02:25:13.159Z,1005.74
2018-11-06T02:25:13.756Z,1005.76
2018-11-06T02:25:14.357Z,1005.74
2018-11-06T02:26:07.838Z,1005.77
2018-11-06T02:26:08.409Z,1005.76
2018-11-06T02:26:09.008Z,1005.76
2018-11-06T02:26:09.609Z,1005.78
2018-11-06T02:26:10.209Z,1005.77
2018-11-06T02:26:10.809Z,1005.78
2018-11-06T02:26:11.408Z,1005.74
2018-11-06T02:26:12.008Z,1005.77
2018-11-06T02:27:06.510Z,1005.78
2018-11-06T02:27:07.085Z,1005.77
2018-11-06T02:27:07.683Z,1005.76
2018-11-06T02:27:08.284Z,1005.74
2018-11-06T02:27:08.886Z,1005.79
2018-11-06T02:27:09.484Z,1005.77
2018-11-06T02:27:10.084Z,1005.79
2018-11-06T02:27:10.683Z,1005.78
2018-11-06T02:28:04.165Z,1005.74
2018-11-06T02:28:04.736Z,1005.73
2018-11-06T02:28:05.336Z,1005.77
2018-11-06T02:28:05.935Z,1005.74
2018-11-06T02:28:06.536Z,1005.72
2018-11-06T02:28:07.136Z,1005.74
2018-11-06T02:28:07.736Z,1005.75
2018-11-06T02:28:08.336Z,1005.75
2018-11-06T02:29:01.817Z,1005.69
2018-11-06T02:29:02.389Z,1005.71
2018-11-06T02:29:02.988Z,1005.70
2018-11-06T02:29:03.588Z,1005.76
2018-11-06T02:29:04.187Z,1005.74
2018-11-06T02:29:04.787Z,1005.72
2018-11-06T02:29:05.387Z,1005.73
2018-11-06T02:29:05.986Z,1005.72
2018-11-06T02:29:59.559Z,1005.69
2018-11-06T02:30:00.063Z,1005.67
2018-11-06T02:30:00.660Z,1005.70
2018-11-06T02:30:01.261Z,1005.66
2018-11-06T02:30:01.861Z,1005.64
2018-11-06T02:30:02.459Z,1005.69
2018-11-06T02:30:03.061Z,1005.70
2018-11-06T02:30:03.666Z,1005.70
2018-11-06T02:30:57.221Z,1005.67
2018-11-06T02:30:57.799Z,1005.70
2018-11-06T02:30:58.395Z,1005.70
2018-11-06T02:30:58.995Z,1005.70
2018-11-06T02:30:59.595Z,1005.71
2018-11-06T02:31:00.193Z,1005.71
2018-11-06T02:31:00.794Z,1005.71
2018-11-06T02:31:01.394Z,1005.69
2018-11-06T02:31:55.899Z,1005.69
2018-11-06T02:31:56.469Z,1005.70
2018-11-06T02:31:57.068Z,1005.73
2018-11-06T02:31:57.668Z,1005.73
2018-11-06T02:31:58.268Z,1005.72
2018-11-06T02:31:58.868Z,1005.70
2018-11-06T02:31:59.470Z,1005.73
2018-11-06T02:32:00.071Z,1005.76
2018-11-06T02:32:53.548Z,1005.73
2018-11-06T02:32:54.122Z,1005.75
2018-11-06T02:32:54.721Z,1005.75
2018-11-06T02:32:55.322Z,1005.73
2018-11-06T02:32:55.920Z,1005.71
2018-11-06T02:32:56.525Z,1005.75
2018-11-06T02:32:57.121Z,1005.75
2018-11-06T02:32:57.720Z,1005.70
2018-11-06T02:33:51.303Z,1005.77
2018-11-06T02:33:51.877Z,1005.77
2018-11-06T02:33:52.477Z,1005.77
2018-11-06T02:33:53.076Z,1005.72
2018-11-06T02:33:53.675Z,1005.75
2018-11-06T02:33:54.275Z,1005.76
2018-11-06T02:33:54.874Z,1005.77
2018-11-06T02:33:55.474Z,1005.75
2018-11-06T02:34:49.980Z,1005.79
2018-11-06T02:34:50.550Z,1005.78
2018-11-06T02:34:51.151Z,1005.73
2018-11-06T02:34:51.755Z,1005.75
2018-11-06T02:34:52.349Z,1005.70
2018-11-06T02:34:52.949Z,1005.77
2018-11-06T02:34:53.554Z,1005.77
2018-11-06T02:34:54.149Z,1005.77
2018-11-06T02:35:48.654Z,1005.74
2018-11-06T02:35:49.227Z,1005.76
2018-11-06T02:35:49.825Z,1005.74
2018-11-06T02:35:50.427Z,1005.74
2018-11-06T02:35:51.026Z,1005.74
2018-11-06T02:35:51.625Z,1005.77
2018-11-06T02:35:52.228Z,1005.74
2018-11-06T02:35:52.826Z,1005.77
2018-11-06T02:36:46.307Z,1005.76
2018-11-06T02:36:46.879Z,1005.70
2018-11-06T02:36:47.479Z,1005.73
2018-11-06T02:36:48.081Z,1005.73
2018-11-06T02:36:48.679Z,1005.76
2018-11-06T02:36:49.278Z,1005.76
2018-11-06T02:36:49.879Z,1005.77
2018-11-06T02:36:50.477Z,1005.73
2018-11-06T02:37:44.980Z,1005.76
2018-11-06T02:37:45.554Z,1005.74
2018-11-06T02:37:46.155Z,1005.75
2018-11-06T02:37:46.756Z,1005.76
2018-11-06T02:37:47.352Z,1005.73
2018-11-06T02:37:47.952Z,1005.75
2018-11-06T02:37:48.553Z,1005.76
2018-11-06T02:37:49.152Z,1005.73
2018-11-06T02:38:43.658Z,1005.78
2018-11-06T02:38:44.228Z,1005.77
2018-11-06T02:38:44.828Z,1005.73
2018-11-06T02:38:45.435Z,1005.76
2018-11-06T02:38:46.028Z,1005.74
2018-11-06T02:38:46.626Z,1005.74
2018-11-06T02:38:47.227Z,1005.76
2018-11-06T02:38:47.827Z,1005.76
2018-11-06T02:39:42.332Z,1005.74
2018-11-06T02:39:42.905Z,1005.77
2018-11-06T02:39:43.505Z,1005.77
2018-11-06T02:39:44.104Z,1005.76
2018-11-06T02:39:44.705Z,1005.76
2018-11-06T02:39:45.306Z,1005.77
2018-11-06T02:39:45.904Z,1005.78
2018-11-06T02:39:46.505Z,1005.80
2018-11-06T02:40:39.985Z,1005.82
2018-11-06T02:40:40.559Z,1005.82
2018-11-06T02:40:41.158Z,1005.78
2018-11-06T02:40:41.758Z,1005.80
2018-11-06T02:40:42.359Z,1005.82
2018-11-06T02:40:42.957Z,1005.81
2018-11-06T02:40:43.556Z,1005.78
2018-11-06T02:40:44.158Z,1005.82
2018-11-06T02:41:38.662Z,1005.82
2018-11-06T02:41:39.237Z,1005.86
2018-11-06T02:41:39.832Z,1005.84
2018-11-06T02:41:40.432Z,1005.82
2018-11-06T02:41:41.034Z,1005.82
2018-11-06T02:41:41.632Z,1005.84
2018-11-06T02:41:42.232Z,1005.84
2018-11-06T02:41:42.832Z,1005.83
2018-11-06T02:42:36.312Z,1005.85
2018-11-06T02:42:36.885Z,1005.86
2018-11-06T02:42:37.484Z,1005.84
2018-11-06T02:42:38.087Z,1005.83
2018-11-06T02:42:38.685Z,1005.82
2018-11-06T02:42:39.287Z,1005.86
2018-11-06T02:42:39.885Z,1005.86
2018-11-06T02:42:40.483Z,1005.87
2018-11-06T02:43:33.964Z,1005.83
2018-11-06T02:43:34.537Z,1005.84
2018-11-06T02:43:35.136Z,1005.82
2018-11-06T02:43:35.736Z,1005.82
2018-11-06T02:43:36.339Z,1005.82
2018-11-06T02:43:36.936Z,1005.81
2018-11-06T02:43:37.543Z,1005.85
2018-11-06T02:43:38.137Z,1005.85
2018-11-06T02:44:31.617Z,1005.85
2018-11-06T02:44:32.191Z,1005.87
2018-11-06T02:44:32.795Z,1005.86
2018-11-06T02:44:33.389Z,1005.86
2018-11-06T02:44:33.989Z,1005.84
2018-11-06T02:44:34.589Z,1005.83
2018-11-06T02:44:35.189Z,1005.85
2018-11-06T02:44:35.787Z,1005.88
2018-11-06T02:45:29.269Z,1005.85
2018-11-06T02:45:29.840Z,1005.87
2018-11-06T02:45:30.439Z,1005.88
2018-11-06T02:45:31.041Z,1005.86
2018-11-06T02:45:31.639Z,1005.85
2018-11-06T02:45:32.239Z,1005.86
2018-11-06T02:45:32.840Z,1005.90
2018-11-06T02:45:33.440Z,1005.87
2018-11-06T02:46:27.940Z,1005.89
2018-11-06T02:46:28.515Z,1005.86
2018-11-06T02:46:29.115Z,1005.89
2018-11-06T02:46:29.715Z,1005.83
2018-11-06T02:46:30.315Z,1005.87
2018-11-06T02:46:30.913Z,1005.88
2018-11-06T02:46:31.514Z,1005.82
2018-11-06T02:46:32.116Z,1005.90
2018-11-06T02:47:26.623Z,1005.91
2018-11-06T02:47:27.190Z,1005.88
2018-11-06T02:47:27.792Z,1005.91
2018-11-06T02:47:28.391Z,1005.90
2018-11-06T02:47:28.991Z,1005.89
2018-11-06T02:47:29.590Z,1005.90
2018-11-06T02:47:30.191Z,1005.86
2018-11-06T02:47:30.788Z,1005.88
2018-11-06T02:48:24.271Z,1005.92
2018-11-06T02:48:24.842Z,1005.90
2018-11-06T02:48:25.443Z,1005.89
2018-11-06T02:48:26.042Z,1005.90
2018-11-06T02:48:26.645Z,1005.91
2018-11-06T02:48:27.243Z,1005.92
2018-11-06T02:48:27.842Z,1005.92
2018-11-06T02:48:28.441Z,1005.92
2018-11-06T02:49:22.944Z,1005.93
2018-11-06T02:49:23.520Z,1005.95
2018-11-06T02:49:24.120Z,1005.91
2018-11-06T02:49:24.725Z,1005.96
2018-11-06T02:49:25.318Z,1005.93
2018-11-06T02:49:25.917Z,1005.93
2018-11-06T02:49:26.517Z,1005.92
2018-11-06T02:49:27.118Z,1005.96
2018-11-06T02:50:20.601Z,1005.97
2018-11-06T02:50:21.171Z,1005.95
2018-11-06T02:50:21.771Z,1005.96
2018-11-06T02:50:22.370Z,1005.96
2018-11-06T02:50:22.971Z,1005.94
2018-11-06T02:50:23.570Z,1005.97
2018-11-06T02:50:24.170Z,1005.96
2018-11-06T02:50:24.770Z,1005.95
2018-11-06T02:51:19.340Z,1005.94
2018-11-06T02:51:19.848Z,1005.95
2018-11-06T02:51:20.446Z,1005.95
2018-11-06T02:51:21.045Z,1005.97
2018-11-06T02:51:21.646Z,1005.92
2018-11-06T02:51:22.247Z,1005.95
2018-11-06T02:51:22.844Z,1005.96
2018-11-06T02:51:23.445Z,1005.90
2018-11-06T02:52:17.948Z,1005.90
2018-11-06T02:52:18.520Z,1005.91
2018-11-06T02:52:19.120Z,1005.94
2018-11-06T02:52:19.722Z,1005.95
2018-11-06T02:52:20.320Z,1005.93
2018-11-06T02:52:20.920Z,1005.94
2018-11-06T02:52:21.520Z,1005.93
2018-11-06T02:52:22.121Z,1005.94
2018-11-06T02:53:16.623Z,1005.96
2018-11-06T02:53:17.197Z,1005.93
2018-11-06T02:53:17.796Z,1005.92
2018-11-06T02:53:18.396Z,1005.90
2018-11-06T02:53:18.995Z,1005.90
2018-11-06T02:53:19.597Z,1005.96
2018-11-06T02:53:20.196Z,1005.92
2018-11-06T02:53:20.841Z,1005.95
2018-11-06T02:54:19.376Z,1005.98
2018-11-06T05:44:51.699Z,1006.20
2018-11-06T05:44:52.269Z,1006.21
2018-11-06T05:44:52.869Z,1006.21
2018-11-06T05:44:53.470Z,1006.23
2018-11-06T05:44:54.069Z,1006.22
2018-11-06T05:44:54.670Z,1006.21
2018-11-06T05:44:55.271Z,1006.21
2018-11-06T05:44:55.865Z,1006.24
2018-11-06T05:45:49.351Z,1006.25
2018-11-06T05:45:49.922Z,1006.23
2018-11-06T05:45:50.522Z,1006.23
2018-11-06T05:45:51.122Z,1006.27
2018-11-06T05:45:51.723Z,1006.27
2018-11-06T05:45:52.323Z,1006.25
2018-11-06T05:45:52.921Z,1006.26
2018-11-06T05:45:53.521Z,1006.26
2018-11-06T05:46:47.003Z,1006.25
2018-11-06T05:46:47.576Z,1006.26
2018-11-06T05:46:48.175Z,1006.25
2018-11-06T05:46:48.773Z,1006.24
2018-11-06T05:46:49.374Z,1006.26
2018-11-06T05:46:49.974Z,1006.24
2018-11-06T05:46:50.574Z,1006.27
2018-11-06T05:46:51.173Z,1006.26
2018-11-06T05:47:44.656Z,1006.27
2018-11-06T05:47:45.227Z,1006.25
2018-11-06T05:47:45.825Z,1006.29
2018-11-06T05:47:46.429Z,1006.31
2018-11-06T05:47:47.026Z,1006.32